sensor_id;sensor_type;location;lat;lon;timestamp;temperature;humidity
35277;DHT22;21401;50.878;8.050;2023-01-29T00:02:12;-2.90;99.90
35277;DHT22;21401;50.878;8.050;2023-01-29T00:04:44;-2.80;99.90
35277;DHT22;21401;50.878;8.050;2023-01-29T00:07:12;-2.80;99.90
35277;DHT22;21401;50.878;8.050;2023-01-29T00:09:38;-2.80;99.90
35277;DHT22;21401;50.878;8.050;2023-01-29T00:12:07;-2.90;99.90
35277;DHT22;21401;50.878;8.050;2023-01-29T00:14:38;-2.90;99.90
35277;DHT22;21401;50.878;8.050;2023-01-29T00:17:06;-3.00;99.90
35277;DHT22;21401;50.878;8.050;2023-01-29T00:19:34;-3.10;99.90
35277;DHT22;21401;50.878;8.050;2023-01-29T00:22:00;-3.10;99.90
35277;DHT22;21401;50.878;8.050;2023-01-29T00:24:28;-3.10;99.90
35277;DHT22;21401;50.878;8.050;2023-01-29T00:26:54;-3.20;99.90
35277;DHT22;21401;50.878;8.050;2023-01-29T00:29:22;-3.30;99.90
35277;DHT22;21401;50.878;8.050;2023-01-29T00:31:52;-3.30;99.90
35277;DHT22;21401;50.878;8.050;2023-01-29T00:34:28;-3.30;99.90
35277;DHT22;21401;50.878;8.050;2023-01-29T00:36:56;-3.20;99.90
35277;DHT22;21401;50.878;8.050;2023-01-29T00:39:29;-3.20;99.90
35277;DHT22;21401;50.878;8.050;2023-01-29T00:42:04;-3.30;99.90
35277;DHT22;21401;50.878;8.050;2023-01-29T00:45:04;-3.50;99.90
35277;DHT22;21401;50.878;8.050;2023-01-29T00:47:30;-3.60;99.90
35277;DHT22;21401;50.878;8.050;2023-01-29T00:49:57;-3.60;99.90
35277;DHT22;21401;50.878;8.050;2023-01-29T00:52:27;-3.60;99.90
35277;DHT22;21401;50.878;8.050;2023-01-29T00:54:59;-3.60;99.90
35277;DHT22;21401;50.878;8.050;2023-01-29T00:57:26;-3.50;99.90
35277;DHT22;21401;50.878;8.050;2023-01-29T00:59:53;-3.60;99.90
35277;DHT22;21401;50.878;8.050;2023-01-29T01:02:22;-3.60;99.90
35277;DHT22;21401;50.878;8.050;2023-01-29T01:05:11;-3.70;99.90
35277;DHT22;21401;50.878;8.050;2023-01-29T01:07:52;-3.60;99.90
35277;DHT22;21401;50.878;8.050;2023-01-29T01:10:30;-3.70;99.90
35277;DHT22;21401;50.878;8.050;2023-01-29T01:13:01;-3.70;99.90
35277;DHT22;21401;50.878;8.050;2023-01-29T01:15:29;-3.70;99.90
35277;DHT22;21401;50.878;8.050;2023-01-29T01:18:01;-3.80;99.90
35277;DHT22;21401;50.878;8.050;2023-01-29T01:20:32;-3.80;99.90
35277;DHT22;21401;50.878;8.050;2023-01-29T01:23:00;-3.90;99.90
35277;DHT22;21401;50.878;8.050;2023-01-29T01:25:26;-3.90;99.90
35277;DHT22;21401;50.878;8.050;2023-01-29T01:27:56;-3.80;99.90
35277;DHT22;21401;50.878;8.050;2023-01-29T01:30:23;-3.80;99.90
35277;DHT22;21401;50.878;8.050;2023-01-29T01:32:51;-3.80;99.90
35277;DHT22;21401;50.878;8.050;2023-01-29T01:35:17;-3.90;99.90
35277;DHT22;21401;50.878;8.050;2023-01-29T01:37:43;-3.90;99.90
35277;DHT22;21401;50.878;8.050;2023-01-29T01:43:59;-4.00;99.90
35277;DHT22;21401;50.878;8.050;2023-01-29T01:46:41;-4.10;99.90
35277;DHT22;21401;50.878;8.050;2023-01-29T01:49:26;-4.20;99.90
35277;DHT22;21401;50.878;8.050;2023-01-29T01:52:05;-4.20;99.90
35277;DHT22;21401;50.878;8.050;2023-01-29T01:54:50;-4.20;99.90
35277;DHT22;21401;50.878;8.050;2023-01-29T01:57:30;-4.30;99.90
35277;DHT22;21401;50.878;8.050;2023-01-29T02:00:20;-4.30;99.90
35277;DHT22;21401;50.878;8.050;2023-01-29T02:03:09;-4.30;99.90
35277;DHT22;21401;50.878;8.050;2023-01-29T02:05:58;-4.20;99.90
35277;DHT22;21401;50.878;8.050;2023-01-29T02:08:54;-4.20;99.90
35277;DHT22;21401;50.878;8.050;2023-01-29T02:11:39;-4.20;99.90
35277;DHT22;21401;50.878;8.050;2023-01-29T02:14:05;-4.20;99.90
35277;DHT22;21401;50.878;8.050;2023-01-29T02:16:34;-4.30;99.90
35277;DHT22;21401;50.878;8.050;2023-01-29T02:19:15;-4.30;99.90
35277;DHT22;21401;50.878;8.050;2023-01-29T02:22:10;-4.40;99.90
35277;DHT22;21401;50.878;8.050;2023-01-29T02:28:36;-4.20;99.90
35277;DHT22;21401;50.878;8.050;2023-01-29T02:33:51;-4.10;99.90
35277;DHT22;21401;50.878;8.050;2023-01-29T02:42:00;-4.20;99.90
35277;DHT22;21401;50.878;8.050;2023-01-29T02:44:40;-4.20;99.90
35277;DHT22;21401;50.878;8.050;2023-01-29T02:47:20;-4.30;99.90
35277;DHT22;21401;50.878;8.050;2023-01-29T02:55:54;-4.50;99.90
35277;DHT22;21401;50.878;8.050;2023-01-29T02:58:39;-4.40;99.90
35277;DHT22;21401;50.878;8.050;2023-01-29T03:01:14;-4.40;99.90
35277;DHT22;21401;50.878;8.050;2023-01-29T03:03:44;-4.50;99.90
35277;DHT22;21401;50.878;8.050;2023-01-29T03:06:17;-4.90;99.90
35277;DHT22;21401;50.878;8.050;2023-01-29T03:11:20;-5.00;99.90
35277;DHT22;21401;50.878;8.050;2023-01-29T03:13:51;-5.10;99.90
35277;DHT22;21401;50.878;8.050;2023-01-29T03:16:28;-5.00;99.90
35277;DHT22;21401;50.878;8.050;2023-01-29T03:19:11;-5.00;99.90
35277;DHT22;21401;50.878;8.050;2023-01-29T03:21:43;-4.90;99.90
35277;DHT22;21401;50.878;8.050;2023-01-29T03:24:49;-4.80;99.90
35277;DHT22;21401;50.878;8.050;2023-01-29T03:27:43;-4.70;99.90
35277;DHT22;21401;50.878;8.050;2023-01-29T03:30:33;-4.50;99.90
35277;DHT22;21401;50.878;8.050;2023-01-29T03:33:20;-4.50;99.90
35277;DHT22;21401;50.878;8.050;2023-01-29T03:35:55;-4.60;99.90
35277;DHT22;21401;50.878;8.050;2023-01-29T03:38:25;-4.70;99.90
35277;DHT22;21401;50.878;8.050;2023-01-29T03:41:08;-4.90;99.90
35277;DHT22;21401;50.878;8.050;2023-01-29T03:46:17;-5.00;99.90
35277;DHT22;21401;50.878;8.050;2023-01-29T03:59:46;-5.00;99.90
35277;DHT22;21401;50.878;8.050;2023-01-29T04:02:31;-4.90;99.90
35277;DHT22;21401;50.878;8.050;2023-01-29T04:05:05;-4.90;99.90
35277;DHT22;21401;50.878;8.050;2023-01-29T04:07:34;-4.90;99.90
35277;DHT22;21401;50.878;8.050;2023-01-29T04:10:07;-4.90;99.90
35277;DHT22;21401;50.878;8.050;2023-01-29T04:12:44;-5.00;99.90
35277;DHT22;21401;50.878;8.050;2023-01-29T04:15:15;-5.00;99.90
35277;DHT22;21401;50.878;8.050;2023-01-29T04:17:48;-4.90;99.90
35277;DHT22;21401;50.878;8.050;2023-01-29T04:20:15;-5.10;99.90
35277;DHT22;21401;50.878;8.050;2023-01-29T04:22:48;-5.00;99.90
35277;DHT22;21401;50.878;8.050;2023-01-29T04:25:21;-5.20;99.90
35277;DHT22;21401;50.878;8.050;2023-01-29T04:28:04;-5.10;99.90
35277;DHT22;21401;50.878;8.050;2023-01-29T04:30:57;-5.00;99.90
35277;DHT22;21401;50.878;8.050;2023-01-29T04:33:33;-4.90;99.90
35277;DHT22;21401;50.878;8.050;2023-01-29T04:37:01;-4.90;99.90
35277;DHT22;21401;50.878;8.050;2023-01-29T04:39:42;-4.90;99.90
35277;DHT22;21401;50.878;8.050;2023-01-29T04:44:32;-5.20;99.90
35277;DHT22;21401;50.878;8.050;2023-01-29T04:49:45;-5.20;99.90
35277;DHT22;21401;50.878;8.050;2023-01-29T04:52:36;-5.30;99.90
35277;DHT22;21401;50.878;8.050;2023-01-29T04:55:19;-5.30;99.90
35277;DHT22;21401;50.878;8.050;2023-01-29T05:00:33;-5.20;99.90
35277;DHT22;21401;50.878;8.050;2023-01-29T05:03:09;-5.10;99.90
35277;DHT22;21401;50.878;8.050;2023-01-29T05:05:40;-5.00;99.90
35277;DHT22;21401;50.878;8.050;2023-01-29T05:08:16;-4.90;99.90
35277;DHT22;21401;50.878;8.050;2023-01-29T05:10:48;-4.90;99.90
35277;DHT22;21401;50.878;8.050;2023-01-29T05:13:15;-4.90;99.90
35277;DHT22;21401;50.878;8.050;2023-01-29T05:18:50;-4.90;99.90
35277;DHT22;21401;50.878;8.050;2023-01-29T05:21:16;-4.80;99.90
35277;DHT22;21401;50.878;8.050;2023-01-29T05:24:00;-4.80;99.90
35277;DHT22;21401;50.878;8.050;2023-01-29T05:26:39;-4.80;99.90
35277;DHT22;21401;50.878;8.050;2023-01-29T05:29:23;-4.90;99.90
35277;DHT22;21401;50.878;8.050;2023-01-29T05:31:52;-5.00;99.90
35277;DHT22;21401;50.878;8.050;2023-01-29T05:34:25;-4.90;99.90
35277;DHT22;21401;50.878;8.050;2023-01-29T05:37:02;-4.80;99.90
35277;DHT22;21401;50.878;8.050;2023-01-29T05:39:27;-4.70;99.90
35277;DHT22;21401;50.878;8.050;2023-01-29T05:42:11;-4.80;99.90
35277;DHT22;21401;50.878;8.050;2023-01-29T05:47:30;-4.90;99.90
35277;DHT22;21401;50.878;8.050;2023-01-29T05:50:16;-4.90;99.90
35277;DHT22;21401;50.878;8.050;2023-01-29T05:52:53;-5.00;99.90
35277;DHT22;21401;50.878;8.050;2023-01-29T05:55:25;-5.00;99.90
35277;DHT22;21401;50.878;8.050;2023-01-29T05:57:55;-5.00;99.90
35277;DHT22;21401;50.878;8.050;2023-01-29T06:00:24;-4.90;99.90
35277;DHT22;21401;50.878;8.050;2023-01-29T06:02:53;-4.90;99.90
35277;DHT22;21401;50.878;8.050;2023-01-29T06:05:35;-4.90;99.90
35277;DHT22;21401;50.878;8.050;2023-01-29T07:59:56;-4.50;99.90
35277;DHT22;21401;50.878;8.050;2023-01-29T08:26:27;-4.20;99.90
35277;DHT22;21401;50.878;8.050;2023-01-29T08:53:41;-3.70;99.90
35277;DHT22;21401;50.878;8.050;2023-01-29T09:14:18;-3.30;99.90
35277;DHT22;21401;50.878;8.050;2023-01-29T09:33:50;-3.00;99.90
35277;DHT22;21401;50.878;8.050;2023-01-29T09:36:23;-2.90;99.90
35277;DHT22;21401;50.878;8.050;2023-01-29T09:38:48;-2.80;99.90
35277;DHT22;21401;50.878;8.050;2023-01-29T09:44:17;-2.70;99.90
35277;DHT22;21401;50.878;8.050;2023-01-29T11:27:26;-0.80;99.90
35277;DHT22;21401;50.878;8.050;2023-01-29T11:30:08;-0.90;99.90
35277;DHT22;21401;50.878;8.050;2023-01-29T11:43:36;-1.10;99.90
35277;DHT22;21401;50.878;8.050;2023-01-29T11:46:52;-1.10;99.90
35277;DHT22;21401;50.878;8.050;2023-01-29T12:16:52;-0.10;99.90
